Ottawa Macdonald-Cartier International Airport
CYOW : now visible

Airfield :











YOU CAN JOIN US ON...

 
LOGIN :

Register | Disclaimer

   EN    FR    IT 

 









Legend :    VFR   Marginal VFR   IFR   Intensive IFR   Very Intensive IFR
Visi :
Ceiling :
>= 8 km
>= 3000ft
5 to 8 km
1000 to 3000 ft
1500m to 5 km
500 to 1000 ft
800 to 1500m
200 to 500 ft
< 800m
< 200 ft
Symbols :   Thunderstorms  Fog  Heavy snow  Heavy precipitations  Wind > 20 kt






- Airport Elevation : 374 ft
- IATA code : YOW


CYOW - Ottawa Macdonald-Cartier International

CURRENT METAR :
  • 031300Z 23006KT 210V270 15SM FEW200 19/13 A3003 RMK CI1 CI TR SLP172 DENSITY ALT 900FT

EXPIRED METARs :
  • 031200Z 23006KT 15SM FEW200 16/12 A3003 RMK CI1 CI TR SLP170 DENSITY ALT 500FT
  • 031100Z 23004KT 15SM FEW200 13/11 A3001 RMK CI1 CI TR SLP166

TAF TAF CYOW
Valid from the 03 at 12:00 until the 04 at 12:00 UTC


031142Z 0312/0412 23005KT P6SM SKC
FM031800 24012KT P6SM BKN050
TEMPO 0321/0403 P6SM -SHRA
PROB30 0322/0401 21/2SM TSRA BR OVC030CB
FM040300 VRB03KT P6SM BKN040
FM040500 VRB03KT P6SM SCT040 RMK NXT FCST BY 031500Z
CZUL FIR / North America



MET'MAP, your aeronautical weather chart ! - Copyright ORBIFLY December 2007 - Disclaimer

ORBIFLY MET'MAP TEAM :

Programming & Development : Alexandra Zaïnal
Concept & original design : Baudouin d'Aumeries
Assistance for programming : Marc-Olivier Méhu
Technical & hardware support : Manuel Goepfert

Contact : metmap@orbifly.com




SOURCES & CREDITS :

   NOAA       Earth
Advisory